createdAt,value
2023-03-31T00:00:12.467Z,9.18
2023-03-31T00:03:22.805Z,8.95
2023-03-31T00:06:25.487Z,8.45
2023-03-31T00:09:30.217Z,7.63
2023-03-31T00:12:32.859Z,8.73
2023-03-31T00:15:35.738Z,8.50
2023-03-31T00:18:41.387Z,7.18
2023-03-31T00:21:45.261Z,7.63
2023-03-31T00:24:48.815Z,6.82
2023-03-31T00:27:53.026Z,7.32
2023-03-31T00:31:01.943Z,7.05
2023-03-31T00:34:06.603Z,8.25
2023-03-31T00:37:10.668Z,6.40
2023-03-31T00:40:13.518Z,11.48
2023-03-31T00:43:29.873Z,9.48
2023-03-31T00:46:35.663Z,11.25
2023-03-31T00:49:42.420Z,14.35
2023-03-31T00:52:46.117Z,14.07
2023-03-31T00:55:52.597Z,12.18
2023-03-31T00:58:58.423Z,13.40
2023-03-31T01:02:03.651Z,9.85
2023-03-31T01:05:06.547Z,11.10
2023-03-31T01:08:09.823Z,10.68
2023-03-31T01:11:16.781Z,11.77
2023-03-31T01:14:19.419Z,10.95
2023-03-31T01:17:22.957Z,10.02
2023-03-31T01:21:07.068Z,10.35
2023-03-31T01:24:09.897Z,9.80
2023-03-31T01:27:44.055Z,8.88
2023-03-31T01:30:49.820Z,11.32
2023-03-31T01:34:23.366Z,10.57
2023-03-31T01:38:03.620Z,12.35
2023-03-31T01:41:31.485Z,13.30
2023-03-31T01:44:47.505Z,13.20
2023-03-31T01:47:59.384Z,13.25
2023-03-31T01:51:39.077Z,11.65
2023-03-31T01:55:06.858Z,10.32
2023-03-31T01:58:13.830Z,11.93
2023-03-31T02:01:26.840Z,12.82
2023-03-31T02:04:37.168Z,10.10
2023-03-31T02:07:59.877Z,13.63
2023-03-31T02:11:03.103Z,12.13
2023-03-31T02:14:10.537Z,12.60
2023-03-31T02:17:18.700Z,12.23
2023-03-31T02:23:29.871Z,11.85
2023-03-31T02:26:42.289Z,11.52
2023-03-31T02:29:45.236Z,13.45
2023-03-31T02:32:48.690Z,11.48
2023-03-31T02:35:51.939Z,13.40
2023-03-31T02:39:10.442Z,11.05
2023-03-31T02:42:13.529Z,13.10
2023-03-31T02:45:46.383Z,13.93
2023-03-31T02:48:51.374Z,10.68
2023-03-31T02:52:16.225Z,11.80
2023-03-31T02:55:25.386Z,12.20
2023-03-31T02:58:49.615Z,10.70
2023-03-31T03:02:06.371Z,10.70
2023-03-31T03:05:20.547Z,13.85
2023-03-31T03:08:50.906Z,12.38
2023-03-31T03:12:09.706Z,14.52
2023-03-31T03:15:48.222Z,13.02
2023-03-31T03:19:02.607Z,12.88
2023-03-31T03:22:07.377Z,12.15
2023-03-31T03:25:14.226Z,12.97
2023-03-31T03:28:17.882Z,13.90
2023-03-31T03:31:24.286Z,16.15
2023-03-31T03:34:27.372Z,13.57
2023-03-31T03:37:30.668Z,13.63
2023-03-31T03:40:33.605Z,9.93
2023-03-31T03:43:36.716Z,14.48
2023-03-31T03:46:39.653Z,14.15
2023-03-31T03:49:42.333Z,12.70
2023-03-31T03:52:45.676Z,10.27
2023-03-31T03:55:50.049Z,13.60
2023-03-31T03:58:52.795Z,12.00
2023-03-31T04:01:55.617Z,12.35
2023-03-31T04:04:58.642Z,12.30
2023-03-31T04:08:01.694Z,11.75
2023-03-31T04:11:15.646Z,13.15
2023-03-31T04:14:20.071Z,14.48
2023-03-31T04:17:35.004Z,13.00
2023-03-31T04:20:38.278Z,13.13
2023-03-31T04:23:47.043Z,13.73
2023-03-31T04:26:51.249Z,23.13
2023-03-31T04:29:57.690Z,14.43
2023-03-31T04:33:03.021Z,11.20
2023-03-31T04:36:18.341Z,12.18
2023-03-31T04:39:27.188Z,12.48
2023-03-31T04:42:29.994Z,9.25
2023-03-31T04:45:32.971Z,12.20
2023-03-31T04:48:36.355Z,14.32
2023-03-31T04:51:39.234Z,13.73
2023-03-31T04:54:41.956Z,9.80
2023-03-31T04:57:44.827Z,10.98
2023-03-31T05:00:47.580Z,12.23
2023-03-31T05:03:50.954Z,13.70
2023-03-31T05:06:53.961Z,11.88
2023-03-31T05:09:59.027Z,13.32
2023-03-31T05:13:01.920Z,10.15
2023-03-31T05:16:09.442Z,15.07
2023-03-31T05:19:12.578Z,10.48
2023-03-31T05:22:15.475Z,12.20
2023-03-31T05:25:21.204Z,13.38
2023-03-31T05:28:24.160Z,11.73
2023-03-31T05:31:27.748Z,10.27
2023-03-31T05:34:30.421Z,9.77
2023-03-31T05:37:33.270Z,12.60
2023-03-31T05:40:36.576Z,13.50
2023-03-31T05:43:40.180Z,11.48
2023-03-31T05:46:44.254Z,11.93
2023-03-31T05:49:47.090Z,12.15
2023-03-31T05:52:49.944Z,13.27
2023-03-31T05:55:58.170Z,11.65
2023-03-31T05:59:01.765Z,13.20
2023-03-31T06:02:05.737Z,13.50
2023-03-31T06:05:08.773Z,9.95
2023-03-31T06:08:11.951Z,11.38
2023-03-31T06:11:20.447Z,14.23
2023-03-31T06:14:25.615Z,11.63
2023-03-31T06:17:28.653Z,10.13
2023-03-31T06:20:31.761Z,10.77
2023-03-31T06:23:35.181Z,11.65
2023-03-31T06:26:38.310Z,11.45
2023-03-31T06:29:41.472Z,12.85
2023-03-31T06:32:44.646Z,12.90
2023-03-31T06:35:47.645Z,12.27
2023-03-31T06:38:51.396Z,11.70
2023-03-31T06:41:56.112Z,13.68
2023-03-31T06:45:04.694Z,11.90
2023-03-31T06:48:07.617Z,12.05
2023-03-31T06:51:11.210Z,11.82
2023-03-31T06:54:14.105Z,14.35
2023-03-31T06:57:17.156Z,10.75
2023-03-31T07:00:22.841Z,12.52
2023-03-31T07:03:26.215Z,14.27
2023-03-31T07:06:29.300Z,11.90
2023-03-31T07:09:32.254Z,10.70
2023-03-31T07:12:35.854Z,11.55
2023-03-31T07:15:38.598Z,12.00
2023-03-31T07:18:42.490Z,10.75
2023-03-31T07:21:46.144Z,9.95
2023-03-31T07:24:49.113Z,10.27
2023-03-31T07:27:51.899Z,11.50
2023-03-31T07:30:54.632Z,12.05
2023-03-31T07:33:57.783Z,9.95
2023-03-31T07:37:00.927Z,9.88
2023-03-31T07:40:06.013Z,12.77
2023-03-31T07:43:08.988Z,12.10
2023-03-31T07:46:27.297Z,12.70
2023-03-31T07:49:30.854Z,12.20
2023-03-31T07:52:36.068Z,12.43
2023-03-31T07:55:38.798Z,15.00
2023-03-31T07:58:41.961Z,14.25
2023-03-31T08:01:44.873Z,13.77
2023-03-31T08:04:48.112Z,12.80
2023-03-31T08:07:51.428Z,14.20
2023-03-31T08:10:54.540Z,11.95
2023-03-31T08:13:57.564Z,9.95
2023-03-31T08:17:00.930Z,12.15
2023-03-31T08:20:07.963Z,10.30
2023-03-31T08:23:12.452Z,9.88
2023-03-31T08:26:20.300Z,12.07
2023-03-31T08:29:23.099Z,9.85
2023-03-31T08:32:25.777Z,12.63
2023-03-31T08:35:28.805Z,11.57
2023-03-31T08:38:31.815Z,13.43
2023-03-31T08:41:46.870Z,14.55
2023-03-31T08:45:02.489Z,14.10
2023-03-31T08:48:20.845Z,12.38
2023-03-31T08:51:40.697Z,12.02
2023-03-31T08:54:47.639Z,11.45
2023-03-31T08:58:08.609Z,10.82
2023-03-31T09:01:52.160Z,9.45
2023-03-31T09:05:07.916Z,11.20
2023-03-31T09:08:29.371Z,9.65
2023-03-31T09:11:57.350Z,10.50
2023-03-31T09:18:25.705Z,9.27
2023-03-31T09:21:35.629Z,10.30
2023-03-31T09:25:04.115Z,9.82
2023-03-31T09:28:15.058Z,7.97
2023-03-31T09:31:20.751Z,9.32
2023-03-31T09:34:29.986Z,8.73
2023-03-31T09:37:33.663Z,10.45
2023-03-31T09:40:36.320Z,10.32
2023-03-31T09:43:41.581Z,8.85
2023-03-31T09:46:44.402Z,7.60
2023-03-31T09:49:53.708Z,7.25
2023-03-31T09:52:59.850Z,8.63
2023-03-31T09:56:06.557Z,7.68
2023-03-31T09:59:19.247Z,8.45
2023-03-31T10:02:28.797Z,9.10
2023-03-31T10:05:32.881Z,8.40
2023-03-31T10:08:51.657Z,8.57
2023-03-31T10:11:58.055Z,8.43
2023-03-31T10:15:22.115Z,8.68
2023-03-31T10:18:37.531Z,8.52
2023-03-31T10:21:40.752Z,8.05
2023-03-31T10:24:45.949Z,7.70
2023-03-31T10:27:52.351Z,8.18
2023-03-31T10:30:58.247Z,7.72
2023-03-31T10:34:15.884Z,8.27
2023-03-31T10:37:21.477Z,8.43
2023-03-31T10:40:26.785Z,8.93
2023-03-31T10:43:31.464Z,9.85
2023-03-31T10:46:51.665Z,8.38
2023-03-31T10:49:58.131Z,7.85
2023-03-31T10:53:06.517Z,8.18
2023-03-31T10:56:35.551Z,7.88
2023-03-31T11:00:24.970Z,8.90
2023-03-31T11:03:49.349Z,8.82
2023-03-31T11:06:58.036Z,9.18
2023-03-31T11:10:15.872Z,8.10
2023-03-31T11:13:24.416Z,8.93
2023-03-31T11:16:27.555Z,7.22
2023-03-31T11:19:44.618Z,8.68
2023-03-31T11:23:05.724Z,8.38
2023-03-31T11:26:29.862Z,7.82
2023-03-31T11:29:38.581Z,7.35
2023-03-31T11:32:47.068Z,7.95
2023-03-31T11:36:08.024Z,7.32
2023-03-31T11:39:19.770Z,7.90
2023-03-31T11:42:35.715Z,8.55
2023-03-31T11:45:46.847Z,8.02
2023-03-31T11:48:58.934Z,7.22
2023-03-31T11:52:05.507Z,7.03
2023-03-31T11:55:18.670Z,7.13
2023-03-31T11:58:27.501Z,7.70
2023-03-31T12:01:42.996Z,6.75
2023-03-31T12:04:52.674Z,6.97
2023-03-31T12:08:05.407Z,6.35
2023-03-31T12:11:23.085Z,6.88
2023-03-31T12:14:37.145Z,7.05
2023-03-31T12:17:41.971Z,7.10
2023-03-31T12:20:52.346Z,6.03
2023-03-31T12:23:55.168Z,6.28
2023-03-31T12:27:22.356Z,6.45
2023-03-31T12:30:37.793Z,3.55
2023-03-31T12:33:44.588Z,3.83
2023-03-31T12:37:14.090Z,3.10
2023-03-31T12:40:38.223Z,3.88
2023-03-31T12:43:53.984Z,4.20
2023-03-31T12:47:15.573Z,4.40
2023-03-31T12:50:28.141Z,4.97
2023-03-31T12:53:44.624Z,5.28
2023-03-31T12:57:02.609Z,5.82
2023-03-31T13:00:10.858Z,7.28
2023-03-31T13:03:43.350Z,6.10
2023-03-31T13:06:51.309Z,6.05
2023-03-31T13:09:58.325Z,5.55
2023-03-31T13:13:02.648Z,5.45
2023-03-31T13:16:07.661Z,6.22
2023-03-31T13:19:33.894Z,6.65
2023-03-31T13:22:38.287Z,6.65
2023-03-31T13:25:52.646Z,5.90
2023-03-31T13:29:14.168Z,6.05
2023-03-31T13:32:24.820Z,6.75
2023-03-31T13:35:30.360Z,7.47
2023-03-31T13:39:14.616Z,6.93
2023-03-31T13:42:41.727Z,7.55
2023-03-31T13:45:44.439Z,7.73
2023-03-31T13:49:22.163Z,7.80
2023-03-31T13:53:00.280Z,8.95
2023-03-31T13:56:41.204Z,8.15
2023-03-31T14:00:13.014Z,7.25
2023-03-31T14:03:34.581Z,7.03
2023-03-31T14:06:40.126Z,7.97
2023-03-31T14:09:49.991Z,8.30
2023-03-31T14:12:53.192Z,8.63
2023-03-31T14:15:57.936Z,6.82
2023-03-31T14:19:14.298Z,9.32
2023-03-31T14:22:32.926Z,11.20
2023-03-31T14:25:47.692Z,13.18
2023-03-31T14:29:29.155Z,16.85
2023-03-31T14:32:38.946Z,15.77
2023-03-31T14:36:20.396Z,16.83
2023-03-31T14:39:24.598Z,13.77
2023-03-31T14:42:39.920Z,12.15
2023-03-31T14:45:43.886Z,9.77
2023-03-31T14:48:48.554Z,10.68
2023-03-31T14:51:53.552Z,9.93
2023-03-31T14:54:56.474Z,10.05
2023-03-31T14:58:01.324Z,11.02
2023-03-31T15:01:07.300Z,9.23
2023-03-31T15:04:14.951Z,11.50
2023-03-31T15:07:18.426Z,11.15
2023-03-31T15:10:21.956Z,13.55
2023-03-31T15:14:00.755Z,15.55
2023-03-31T15:17:13.954Z,12.60
2023-03-31T15:20:32.130Z,11.05
2023-03-31T15:23:40.980Z,11.35
2023-03-31T15:26:59.737Z,10.20
2023-03-31T15:30:08.097Z,9.60
2023-03-31T15:33:20.166Z,12.53
2023-03-31T15:36:23.845Z,10.88
2023-03-31T15:39:28.739Z,25.73
2023-03-31T15:42:32.566Z,15.38
2023-03-31T15:45:39.669Z,16.13
2023-03-31T15:48:56.470Z,13.75
2023-03-31T15:52:00.994Z,11.02
2023-03-31T15:55:23.846Z,11.27
2023-03-31T15:58:56.180Z,11.45
2023-03-31T16:02:00.445Z,11.98
2023-03-31T16:05:10.429Z,13.38
2023-03-31T16:08:22.657Z,11.60
2023-03-31T16:11:37.418Z,13.40
2023-03-31T16:15:06.637Z,14.82
2023-03-31T16:18:27.508Z,19.00
2023-03-31T16:21:40.010Z,35.40
2023-03-31T16:24:42.996Z,31.27
2023-03-31T16:27:48.368Z,26.38
2023-03-31T16:30:51.301Z,30.65
2023-03-31T16:33:56.155Z,23.48
2023-03-31T16:36:58.921Z,16.90
2023-03-31T16:40:01.776Z,21.23
2023-03-31T16:43:18.741Z,22.52
2023-03-31T16:46:22.815Z,19.70
2023-03-31T16:49:26.844Z,19.40
2023-03-31T16:52:29.882Z,24.70
2023-03-31T16:55:32.904Z,28.00
2023-03-31T16:58:38.022Z,77.68
2023-03-31T17:01:41.612Z,99.38
2023-03-31T17:04:48.514Z,42.58
2023-03-31T17:07:53.140Z,28.60
2023-03-31T17:11:03.990Z,16.15
2023-03-31T17:14:07.118Z,23.05
2023-03-31T17:17:10.057Z,12.48
2023-03-31T17:20:13.327Z,12.00
2023-03-31T17:23:16.250Z,9.57
2023-03-31T17:26:19.576Z,8.43
2023-03-31T17:29:22.557Z,7.35
2023-03-31T17:32:25.363Z,8.13
2023-03-31T17:35:28.463Z,7.57
2023-03-31T17:38:31.278Z,16.38
2023-03-31T17:41:34.289Z,19.38
2023-03-31T17:44:37.876Z,9.40
2023-03-31T17:47:41.983Z,18.15
2023-03-31T17:50:45.184Z,4.10
2023-03-31T17:53:48.680Z,6.68
2023-03-31T17:56:51.970Z,2.75
2023-03-31T17:59:54.968Z,2.15
2023-03-31T18:02:59.259Z,3.40
2023-03-31T18:06:12.325Z,1.48
2023-03-31T18:09:15.802Z,1.63
2023-03-31T18:12:21.322Z,10.18
2023-03-31T18:15:28.718Z,3.72
2023-03-31T18:18:32.003Z,2.67
2023-03-31T18:21:35.813Z,3.85
2023-03-31T18:24:40.664Z,2.78
2023-03-31T18:27:43.647Z,6.80
2023-03-31T18:30:47.587Z,1.63
2023-03-31T18:33:52.753Z,1.40
2023-03-31T18:36:56.172Z,3.95
2023-03-31T18:39:59.006Z,1.27
2023-03-31T18:43:03.109Z,1.63
2023-03-31T18:46:06.403Z,1.67
2023-03-31T18:49:09.898Z,1.50
2023-03-31T18:52:12.701Z,2.00
2023-03-31T18:55:15.476Z,1.23
2023-03-31T18:58:18.608Z,1.02
2023-03-31T19:01:22.047Z,1.13
2023-03-31T19:04:25.198Z,1.20
2023-03-31T19:07:28.177Z,1.08
2023-03-31T19:10:31.434Z,1.10
2023-03-31T19:13:34.840Z,1.05
2023-03-31T19:16:42.855Z,1.05
2023-03-31T19:19:46.419Z,1.75
2023-03-31T19:22:51.032Z,0.95
2023-03-31T19:25:54.861Z,0.80
2023-03-31T19:28:57.889Z,0.90
2023-03-31T19:32:00.920Z,1.00
2023-03-31T19:35:03.914Z,1.13
2023-03-31T19:38:06.724Z,1.33
2023-03-31T19:41:11.412Z,0.88
2023-03-31T19:44:14.370Z,1.63
2023-03-31T19:47:17.282Z,1.25
2023-03-31T19:50:20.058Z,1.10
2023-03-31T19:53:24.003Z,1.50
2023-03-31T19:56:27.915Z,1.20
2023-03-31T19:59:30.798Z,1.25
2023-03-31T20:02:33.794Z,1.50
2023-03-31T20:05:36.890Z,1.05
2023-03-31T20:08:44.322Z,1.00
2023-03-31T20:11:47.694Z,1.00
2023-03-31T20:14:50.587Z,1.00
2023-03-31T20:17:53.400Z,1.10
2023-03-31T20:21:10.896Z,1.08
2023-03-31T20:27:23.475Z,0.88
2023-03-31T20:30:26.396Z,3.45
2023-03-31T20:33:29.331Z,1.25
2023-03-31T20:36:32.375Z,0.98
2023-03-31T20:39:35.203Z,1.23
2023-03-31T20:42:38.296Z,1.15
2023-03-31T20:45:41.807Z,0.98
2023-03-31T20:48:47.039Z,2.13
2023-03-31T20:51:49.896Z,1.20
2023-03-31T20:54:52.640Z,2.45
2023-03-31T20:57:55.756Z,1.63
2023-03-31T21:00:59.474Z,1.10
2023-03-31T21:04:04.482Z,1.88
2023-03-31T21:07:07.342Z,1.10
2023-03-31T21:10:11.777Z,1.02
2023-03-31T21:13:16.696Z,1.13
2023-03-31T21:16:20.245Z,1.00
2023-03-31T21:19:23.490Z,5.57
2023-03-31T21:22:27.743Z,1.85
2023-03-31T21:25:32.679Z,13.98
2023-03-31T21:28:37.381Z,8.18
2023-03-31T21:31:42.373Z,5.65
2023-03-31T21:34:45.228Z,6.15
2023-03-31T21:37:48.431Z,8.57
2023-03-31T21:40:56.074Z,7.53
2023-03-31T21:44:01.792Z,7.28
2023-03-31T21:47:05.397Z,5.45
2023-03-31T21:50:08.850Z,2.83
2023-03-31T21:53:11.740Z,2.78
2023-03-31T21:56:15.265Z,5.80
2023-03-31T21:59:18.001Z,2.00
2023-03-31T22:02:20.864Z,2.10
2023-03-31T22:05:23.846Z,1.25
2023-03-31T22:08:27.495Z,8.95
2023-03-31T22:11:30.201Z,33.10
2023-03-31T22:14:32.956Z,12.30
2023-03-31T22:17:36.117Z,4.07
2023-03-31T22:20:39.037Z,2.08
2023-03-31T22:23:41.829Z,2.15
2023-03-31T22:26:44.473Z,2.92
2023-03-31T22:29:47.634Z,2.60
2023-03-31T22:32:51.134Z,1.60
2023-03-31T22:35:53.992Z,1.58
2023-03-31T22:38:56.751Z,1.63
2023-03-31T22:41:59.580Z,0.90
2023-03-31T22:45:02.408Z,1.58
2023-03-31T22:48:05.789Z,1.70
2023-03-31T22:51:09.279Z,1.42
2023-03-31T22:54:14.607Z,0.98
2023-03-31T22:57:17.355Z,1.88
2023-03-31T23:00:20.234Z,1.73
2023-03-31T23:03:22.991Z,1.00
2023-03-31T23:06:25.727Z,1.35
2023-03-31T23:09:30.568Z,2.65
2023-03-31T23:12:33.259Z,1.35
2023-03-31T23:15:37.123Z,2.45
2023-03-31T23:18:44.757Z,1.48
2023-03-31T23:21:47.357Z,1.58
2023-03-31T23:24:50.044Z,1.15
2023-03-31T23:27:52.772Z,1.23
2023-03-31T23:30:57.313Z,0.85
2023-03-31T23:34:00.765Z,3.75
2023-03-31T23:37:03.556Z,0.85
2023-03-31T23:40:06.872Z,1.30
2023-03-31T23:43:09.526Z,2.30
2023-03-31T23:46:15.478Z,2.00
2023-03-31T23:49:18.441Z,2.87
2023-03-31T23:52:21.661Z,4.75
2023-03-31T23:55:24.539Z,4.10
2023-03-31T23:58:27.661Z,4.25
